Thunder radar more information blitzortung!


Radar de pluja more information rain snow radar


Visita la nostra xarxa de llocs de meteo:

Template documentation
and downloads

And another site



No particular awareness of the weather is required.    There are no Weather-warnings

Pagina Historial Weather Underground text

Diari Resum Desembre 5, 2017 Unitats:  Mètric    Imperial   Tant
« Previous Dia
SegĂźent Dia »
Diari Setmana Mensual Anual Personalitzada
  Maxima: Minima: Media:
Temperatura: -17.8 °C -17.8 °C -14.2 °C
Punt de rosada: -17.8 °C -22.6 °C -20.8 °C
Humitat: Humidity % 31 % 44 %
Wind Speed: 0 km/h 0 km/h 3.9 km/h
RĂ fegues de vent: 0 km/h - -
Vent:- - ESE
Pression baro: 0 hPa 34669.3 hPa -
Precipitacions: 0 mm    
Historical Graphs
 
 
Dades de taula per Desembre 5, 2017
Temps Temperatura Punt de rosada Pression baro Vent Wind Speed RĂ fegues de vent Humitat Rainfall Rate (Hourly)
-17.8 °C -17.8 °C 0 hPa Calm     Humidity % 0 mm
00:00 -13.7 °C -22.6 °C 34669.3 hPa East 5.1 km/h 5.1 km/h 31 % 0 mm
00:05 -13.7 °C -22.6 °C 34669.3 hPa East 5.1 km/h 5.1 km/h 31 % 0 mm
00:14 -13.7 °C -22.6 °C 34669.3 hPa East 5.1 km/h 5.1 km/h 31 % 0 mm
00:15 -17.6 °C -22.1 °C 35038.3 hPa Calm     54 % 0 mm
00:20 -13.7 °C -22.6 °C 34669.3 hPa East 5.1 km/h 5.1 km/h 31 % 0 mm
00:25 -13.7 °C -22.6 °C 34669.3 hPa East 5.1 km/h 5.1 km/h 31 % 0 mm
00:30 -13.7 °C -22.6 °C 34669.3 hPa East 5.1 km/h 5.1 km/h 31 % 0 mm
00:35 -13.7 °C -22.6 °C 34669.3 hPa East 5.1 km/h 5.1 km/h 31 % 0 mm
00:40 -13.7 °C -22.6 °C 34669.3 hPa East 5.1 km/h 5.1 km/h 31 % 0 mm
00:45 -13.7 °C -22.6 °C 34669.3 hPa East 5.1 km/h 5.1 km/h 31 % 0 mm
00:50 -13.7 °C -22.6 °C 34669.3 hPa East 5.1 km/h 5.1 km/h 31 % 0 mm
00:55 -13.7 °C -22.6 °C 34669.3 hPa East 5.1 km/h 5.1 km/h 31 % 0 mm
01:00 -13.7 °C -22.6 °C 34669.3 hPa East 5.1 km/h 5.1 km/h 31 % 0 mm
01:05 -13.7 °C -22.6 °C 34669.3 hPa East 5.1 km/h 5.1 km/h 31 % 0 mm
01:10 -13.7 °C -22.6 °C 34669.3 hPa East 5.1 km/h 5.1 km/h 31 % 0 mm
01:15 -13.7 °C -22.6 °C 34669.3 hPa East 5.1 km/h 5.1 km/h 31 % 0 mm
01:20 -13.7 °C -22.6 °C 34669.3 hPa East 5.1 km/h 5.1 km/h 31 % 0 mm
01:25 -13.7 °C -22.6 °C 34669.3 hPa East 5.1 km/h 5.1 km/h 31 % 0 mm
01:30 -13.7 °C -22.6 °C 34669.3 hPa East 5.1 km/h 5.1 km/h 31 % 0 mm
01:35 -13.7 °C -22.6 °C 34669.3 hPa East 5.1 km/h 5.1 km/h 31 % 0 mm
01:40 -13.7 °C -22.6 °C 34669.3 hPa East 5.1 km/h 5.1 km/h 31 % 0 mm
01:45 -13.7 °C -22.6 °C 34669.3 hPa East 5.1 km/h 5.1 km/h 31 % 0 mm
01:50 -13.7 °C -22.6 °C 34669.3 hPa East 5.1 km/h 5.1 km/h 31 % 0 mm
01:55 -13.7 °C -22.6 °C 34669.3 hPa East 5.1 km/h 5.1 km/h 31 % 0 mm
02:01 -13.7 °C -22.6 °C 34669.3 hPa East 5.1 km/h 5.1 km/h 31 % 0 mm
02:05 -17.5 °C -21.7 °C 35072.2 hPa NW 5.1 km/h 5.1 km/h 57 % 0 mm
02:10 -13.7 °C -22.6 °C 34669.3 hPa East 5.1 km/h 5.1 km/h 31 % 0 mm
02:15 -13.7 °C -22.6 °C 34669.3 hPa East 5.1 km/h 5.1 km/h 31 % 0 mm
02:20 -13.7 °C -22.6 °C 34669.3 hPa East 5.1 km/h 5.1 km/h 31 % 0 mm
02:25 -17.4 °C -21.4 °C 35072.2 hPa NNW 2.6 km/h 5.1 km/h 58 % 0 mm
02:30 -13.7 °C -22.6 °C 34669.3 hPa East 5.1 km/h 5.1 km/h 31 % 0 mm
02:35 -17.2 °C -21.3 °C 35072.2 hPa North 2.6 km/h 5.1 km/h 58 % 0 mm
02:40 -13.7 °C -22.6 °C 34669.3 hPa East 5.1 km/h 5.1 km/h 31 % 0 mm
02:45 -13.7 °C -22.6 °C 34669.3 hPa East 5.1 km/h 5.1 km/h 31 % 0 mm
02:50 -13.7 °C -22.6 °C 34669.3 hPa East 5.1 km/h 5.1 km/h 31 % 0 mm
02:55 -13.7 °C -22.6 °C 34669.3 hPa East 5.1 km/h 5.1 km/h 31 % 0 mm
03:00 -13.7 °C -22.6 °C 34669.3 hPa East 5.1 km/h 5.1 km/h 31 % 0 mm
03:05 -13.7 °C -22.6 °C 34669.3 hPa East 5.1 km/h 5.1 km/h 31 % 0 mm
03:10 -13.7 °C -22.6 °C 34669.3 hPa East 5.1 km/h 5.1 km/h 31 % 0 mm
03:15 -13.7 °C -22.6 °C 34669.3 hPa East 5.1 km/h 5.1 km/h 31 % 0 mm
03:20 -13.7 °C -22.6 °C 34669.3 hPa East 5.1 km/h 5.1 km/h 31 % 0 mm
03:25 -13.7 °C -22.6 °C 34669.3 hPa East 5.1 km/h 5.1 km/h 31 % 0 mm
03:30 -13.7 °C -22.6 °C 34669.3 hPa East 5.1 km/h 5.1 km/h 31 % 0 mm
03:35 -13.7 °C -22.6 °C 34669.3 hPa East 5.1 km/h 5.1 km/h 31 % 0 mm
03:40 -13.7 °C -22.6 °C 34669.3 hPa East 5.1 km/h 5.1 km/h 31 % 0 mm
03:45 -13.7 °C -22.6 °C 34669.3 hPa East 5.1 km/h 5.1 km/h 31 % 0 mm
03:50 -13.7 °C -22.6 °C 34669.3 hPa East 5.1 km/h 5.1 km/h 31 % 0 mm
03:55 -13.7 °C -22.6 °C 34669.3 hPa East 5.1 km/h 5.1 km/h 31 % 0 mm
04:05 -13.7 °C -22.6 °C 34669.3 hPa East 5.1 km/h 5.1 km/h 31 % 0 mm
04:10 -13.7 °C -22.6 °C 34669.3 hPa East 5.1 km/h 5.1 km/h 31 % 0 mm
04:15 -13.7 °C -22.6 °C 34669.3 hPa East 5.1 km/h 5.1 km/h 31 % 0 mm
04:20 -13.7 °C -22.6 °C 34669.3 hPa East 5.1 km/h 5.1 km/h 31 % 0 mm
04:25 -13.7 °C -22.6 °C 34669.3 hPa East 5.1 km/h 5.1 km/h 31 % 0 mm
04:30 -13.7 °C -22.6 °C 34669.3 hPa East 5.1 km/h 5.1 km/h 31 % 0 mm
04:35 -13.7 °C -22.6 °C 34669.3 hPa East 5.1 km/h 5.1 km/h 31 % 0 mm
04:40 -13.7 °C -22.6 °C 34669.3 hPa East 5.1 km/h 5.1 km/h 31 % 0 mm
04:45 -13.7 °C -22.6 °C 34669.3 hPa East 5.1 km/h 5.1 km/h 31 % 0 mm
04:50 -13.7 °C -22.6 °C 34669.3 hPa East 5.1 km/h 5.1 km/h 31 % 0 mm
04:55 -13.7 °C -22.6 °C 34669.3 hPa East 5.1 km/h 5.1 km/h 31 % 0 mm
05:00 -13.7 °C -22.6 °C 34669.3 hPa East 5.1 km/h 5.1 km/h 31 % 0 mm
05:05 -13.7 °C -22.6 °C 34669.3 hPa East 5.1 km/h 5.1 km/h 31 % 0 mm
05:10 -13.7 °C -22.6 °C 34669.3 hPa East 5.1 km/h 5.1 km/h 31 % 0 mm
05:15 -13.7 °C -22.6 °C 34669.3 hPa East 5.1 km/h 5.1 km/h 31 % 0 mm
05:20 -13.7 °C -22.6 °C 34669.3 hPa East 5.1 km/h 5.1 km/h 31 % 0 mm
05:25 -13.7 °C -22.6 °C 34669.3 hPa East 5.1 km/h 5.1 km/h 31 % 0 mm
05:35 -13.7 °C -22.6 °C 34669.3 hPa East 5.1 km/h 5.1 km/h 31 % 0 mm
05:40 -13.7 °C -22.6 °C 34669.3 hPa East 5.1 km/h 5.1 km/h 31 % 0 mm
05:45 -13.7 °C -22.6 °C 34669.3 hPa East 5.1 km/h 5.1 km/h 31 % 0 mm
05:50 -13.7 °C -22.6 °C 34669.3 hPa East 5.1 km/h 5.1 km/h 31 % 0 mm
05:55 -13.7 °C -22.6 °C 34669.3 hPa East 5.1 km/h 5.1 km/h 31 % 0 mm
06:05 -13.7 °C -22.6 °C 34669.3 hPa East 5.1 km/h 5.1 km/h 31 % 0 mm
06:10 -13.7 °C -22.6 °C 34669.3 hPa East 5.1 km/h 5.1 km/h 31 % 0 mm
06:15 -13.7 °C -22.6 °C 34669.3 hPa East 5.1 km/h 5.1 km/h 31 % 0 mm
06:20 -13.7 °C -22.6 °C 34669.3 hPa East 5.1 km/h 5.1 km/h 31 % 0 mm
06:25 -13.7 °C -22.6 °C 34669.3 hPa East 5.1 km/h 5.1 km/h 31 % 0 mm
06:30 -13.7 °C -22.6 °C 34669.3 hPa East 5.1 km/h 5.1 km/h 31 % 0 mm
06:35 -13.7 °C -22.6 °C 34669.3 hPa East 5.1 km/h 5.1 km/h 31 % 0 mm
06:40 -13.7 °C -22.6 °C 34669.3 hPa East 5.1 km/h 5.1 km/h 31 % 0 mm
06:45 -13.7 °C -22.6 °C 34669.3 hPa East 5.1 km/h 5.1 km/h 31 % 0 mm
06:50 -13.7 °C -22.6 °C 34669.3 hPa East 5.1 km/h 5.1 km/h 31 % 0 mm
06:55 -13.7 °C -22.6 °C 34669.3 hPa East 5.1 km/h 5.1 km/h 31 % 0 mm
07:00 -13.7 °C -22.6 °C 34669.3 hPa East 5.1 km/h 5.1 km/h 31 % 0 mm
07:05 -13.7 °C -22.6 °C 34669.3 hPa East 5.1 km/h 5.1 km/h 31 % 0 mm
07:10 -13.7 °C -22.6 °C 34669.3 hPa East 5.1 km/h 5.1 km/h 31 % 0 mm
07:15 -13.7 °C -22.6 °C 34669.3 hPa East 5.1 km/h 5.1 km/h 31 % 0 mm
07:20 -13.7 °C -22.6 °C 34669.3 hPa East 5.1 km/h 5.1 km/h 31 % 0 mm
07:25 -13.7 °C -22.6 °C 34669.3 hPa East 5.1 km/h 5.1 km/h 31 % 0 mm
07:30 -13.7 °C -22.6 °C 34669.3 hPa East 5.1 km/h 5.1 km/h 31 % 0 mm
07:35 -13.7 °C -22.6 °C 34669.3 hPa East 5.1 km/h 5.1 km/h 31 % 0 mm
07:40 -13.7 °C -22.6 °C 34669.3 hPa East 5.1 km/h 5.1 km/h 31 % 0 mm
07:45 -13.7 °C -22.6 °C 34669.3 hPa East 5.1 km/h 5.1 km/h 31 % 0 mm
07:50 -13.7 °C -22.6 °C 34669.3 hPa East 5.1 km/h 5.1 km/h 31 % 0 mm
07:55 -13.7 °C -22.6 °C 34669.3 hPa East 5.1 km/h 5.1 km/h 31 % 0 mm
08:00 -13.7 °C -22.6 °C 34669.3 hPa East 5.1 km/h 5.1 km/h 31 % 0 mm
08:05 -13.7 °C -22.6 °C 34669.3 hPa East 5.1 km/h 5.1 km/h 31 % 0 mm
08:10 -13.7 °C -22.6 °C 34669.3 hPa East 5.1 km/h 5.1 km/h 31 % 0 mm
08:15 -13.7 °C -22.6 °C 34669.3 hPa East 5.1 km/h 5.1 km/h 31 % 0 mm
08:20 -13.7 °C -22.6 °C 34669.3 hPa East 5.1 km/h 5.1 km/h 31 % 0 mm
08:25 -13.7 °C -22.6 °C 34669.3 hPa East 5.1 km/h 5.1 km/h 31 % 0 mm
08:30 -13.7 °C -22.6 °C 34669.3 hPa East 5.1 km/h 5.1 km/h 31 % 0 mm
08:35 -13.7 °C -22.6 °C 34669.3 hPa East 5.1 km/h 5.1 km/h 31 % 0 mm
08:40 -13.7 °C -22.6 °C 34669.3 hPa East 5.1 km/h 5.1 km/h 31 % 0 mm
08:45 -13.7 °C -22.6 °C 34669.3 hPa East 5.1 km/h 5.1 km/h 31 % 0 mm
08:50 -13.7 °C -22.6 °C 34669.3 hPa East 5.1 km/h 5.1 km/h 31 % 0 mm
08:55 -13.7 °C -22.6 °C 34669.3 hPa East 5.1 km/h 5.1 km/h 31 % 0 mm
09:00 -13.7 °C -22.6 °C 34669.3 hPa East 5.1 km/h 5.1 km/h 31 % 0 mm
09:05 -13.7 °C -22.6 °C 34669.3 hPa East 5.1 km/h 5.1 km/h 31 % 0 mm
09:10 -13.7 °C -22.6 °C 34669.3 hPa East 5.1 km/h 5.1 km/h 31 % 0 mm
09:15 -13.7 °C -22.6 °C 34669.3 hPa East 5.1 km/h 5.1 km/h 31 % 0 mm
09:20 -13.7 °C -22.6 °C 34669.3 hPa East 5.1 km/h 5.1 km/h 31 % 0 mm
09:25 -13.7 °C -22.6 °C 34669.3 hPa East 5.1 km/h 5.1 km/h 31 % 0 mm
09:30 -13.7 °C -22.6 °C 34669.3 hPa East 5.1 km/h 5.1 km/h 31 % 0 mm
09:35 -13.7 °C -22.6 °C 34669.3 hPa East 5.1 km/h 5.1 km/h 31 % 0 mm
09:40 -13.7 °C -22.6 °C 34669.3 hPa East 5.1 km/h 5.1 km/h 31 % 0 mm
09:45 -13.7 °C -22.6 °C 34669.3 hPa East 5.1 km/h 5.1 km/h 31 % 0 mm
09:50 -13.7 °C -22.6 °C 34669.3 hPa East 5.1 km/h 5.1 km/h 31 % 0 mm
09:55 -13.7 °C -22.6 °C 34669.3 hPa East 5.1 km/h 5.1 km/h 31 % 0 mm
10:00 -13.7 °C -22.6 °C 34669.3 hPa East 5.1 km/h 5.1 km/h 31 % 0 mm
10:05 -13.7 °C -22.6 °C 34669.3 hPa East 5.1 km/h 5.1 km/h 31 % 0 mm
10:10 -13.7 °C -22.6 °C 34669.3 hPa East 5.1 km/h 5.1 km/h 31 % 0 mm
10:15 -13.7 °C -22.6 °C 34669.3 hPa East 5.1 km/h 5.1 km/h 31 % 0 mm
10:20 -13.7 °C -22.6 °C 34669.3 hPa East 5.1 km/h 5.1 km/h 31 % 0 mm
10:25 -13.7 °C -22.6 °C 34669.3 hPa East 5.1 km/h 5.1 km/h 31 % 0 mm
10:30 -13.7 °C -22.6 °C 34669.3 hPa East 5.1 km/h 5.1 km/h 31 % 0 mm
10:35 -13.7 °C -22.6 °C 34669.3 hPa East 5.1 km/h 5.1 km/h 31 % 0 mm
10:40 -13.7 °C -22.6 °C 34669.3 hPa East 5.1 km/h 5.1 km/h 31 % 0 mm
10:45 -13.7 °C -22.6 °C 34669.3 hPa East 5.1 km/h 5.1 km/h 31 % 0 mm
10:50 -13.7 °C -22.6 °C 34669.3 hPa East 5.1 km/h 5.1 km/h 31 % 0 mm
10:55 -13.7 °C -22.6 °C 34669.3 hPa East 5.1 km/h 5.1 km/h 31 % 0 mm
11:00 -13.7 °C -22.6 °C 34669.3 hPa East 5.1 km/h 5.1 km/h 31 % 0 mm
11:05 -13.7 °C -22.6 °C 34669.3 hPa East 5.1 km/h 5.1 km/h 31 % 0 mm
11:10 -13.7 °C -22.6 °C 34669.3 hPa East 5.1 km/h 5.1 km/h 31 % 0 mm
11:15 -13.7 °C -22.6 °C 34669.3 hPa East 5.1 km/h 5.1 km/h 31 % 0 mm
11:20 -13.7 °C -22.6 °C 34669.3 hPa East 5.1 km/h 5.1 km/h 31 % 0 mm
11:25 -13.7 °C -22.6 °C 34669.3 hPa East 5.1 km/h 5.1 km/h 31 % 0 mm
11:30 -13.7 °C -22.6 °C 34669.3 hPa East 5.1 km/h 5.1 km/h 31 % 0 mm
11:35 -13.7 °C -22.6 °C 34669.3 hPa East 5.1 km/h 5.1 km/h 31 % 0 mm
11:40 -13.7 °C -22.6 °C 34669.3 hPa East 5.1 km/h 5.1 km/h 31 % 0 mm
11:45 -13.7 °C -22.6 °C 34669.3 hPa East 5.1 km/h 5.1 km/h 31 % 0 mm
11:50 -13.7 °C -22.6 °C 34669.3 hPa East 5.1 km/h 5.1 km/h 31 % 0 mm
11:55 -13.7 °C -22.6 °C 34669.3 hPa East 5.1 km/h 5.1 km/h 31 % 0 mm
12:00 -13.7 °C -22.6 °C 34669.3 hPa East 5.1 km/h 5.1 km/h 31 % 0 mm
12:05 -13.7 °C -22.6 °C 34669.3 hPa East 5.1 km/h 5.1 km/h 31 % 0 mm
12:10 -13.7 °C -22.6 °C 34669.3 hPa East 5.1 km/h 5.1 km/h 31 % 0 mm
12:15 -13.7 °C -22.6 °C 34669.3 hPa East 5.1 km/h 5.1 km/h 31 % 0 mm
12:20 -13.7 °C -22.6 °C 34669.3 hPa East 5.1 km/h 5.1 km/h 31 % 0 mm
12:25 -13.7 °C -22.6 °C 34669.3 hPa East 5.1 km/h 5.1 km/h 31 % 0 mm
12:30 -13.7 °C -22.6 °C 34669.3 hPa East 5.1 km/h 5.1 km/h 31 % 0 mm
12:35 -13.7 °C -22.6 °C 34669.3 hPa East 5.1 km/h 5.1 km/h 31 % 0 mm
12:40 -13.7 °C -22.6 °C 34669.3 hPa East 5.1 km/h 5.1 km/h 31 % 0 mm
12:45 -13.7 °C -22.6 °C 34669.3 hPa East 5.1 km/h 5.1 km/h 31 % 0 mm
12:55 -13.7 °C -22.6 °C 34669.3 hPa East 5.1 km/h 5.1 km/h 31 % 0 mm
13:00 -13.7 °C -22.6 °C 34669.3 hPa East 5.1 km/h 5.1 km/h 31 % 0 mm
13:20 -13.3 °C -18.2 °C 35072.2 hPa NE 15 km/h 15 km/h 54 % 0 mm
13:25 -13.2 °C -18.1 °C 35072.2 hPa ENE 6.8 km/h 6.8 km/h 54 % 0 mm
13:30 -13.1 °C -17.9 °C 35072.2 hPa NNE 7.6 km/h 7.6 km/h 54 % 0 mm
13:35 -13 °C -17.9 °C 35072.2 hPa ESE 15 km/h 15 km/h 54 % 0 mm
13:40 -12.9 °C -17.8 °C 35072.2 hPa ENE 9 km/h 9 km/h 54 % 0 mm
13:50 -12.9 °C -17.9 °C 35038.3 hPa ENE 6 km/h 6 km/h 53 % 0 mm
13:55 -12.9 °C -17.9 °C 35038.3 hPa WNW 6.3 km/h 6.3 km/h 53 % 0 mm
14:00 -12.8 °C -17.9 °C 35038.3 hPa NNE 11.9 km/h 11.9 km/h 53 % 0 mm
14:05 -12.8 °C -17.8 °C 35038.3 hPa WNW 6 km/h 6 km/h 53 % 0 mm
14:10 -12.8 °C -17.8 °C 35038.3 hPa NNE 6 km/h 6 km/h 53 % 0 mm
14:15 -12.7 °C -17.7 °C 35038.3 hPa North 7.6 km/h 7.6 km/h 53 % 0 mm
14:20 -12.7 °C -17.7 °C 35038.3 hPa NNE 6 km/h 6 km/h 53 % 0 mm
14:25 -12.6 °C -17.7 °C 35038.3 hPa ENE 6.3 km/h 6.3 km/h 53 % 0 mm
14:30 -12.6 °C -17.6 °C 35038.3 hPa NNE 4.2 km/h 4.2 km/h 53 % 0 mm
14:35 -12.6 °C -17.6 °C 35038.3 hPa North 6 km/h 6 km/h 53 % 0 mm
14:40 -12.6 °C -17.6 °C 35038.3 hPa ENE 6 km/h 6 km/h 53 % 0 mm
14:45 -12.6 °C -17.8 °C 35038.3 hPa NE 11.9 km/h 11.9 km/h 52 % 0 mm
14:50 -12.6 °C -17.8 °C 35038.3 hPa NNE 6 km/h 6 km/h 52 % 0 mm
14:55 -12.4 °C -17.7 °C 35038.3 hPa NNW 3.7 km/h 3.7 km/h 52 % 0 mm
15:00 -12.4 °C -17.7 °C 35038.3 hPa NNW 3.7 km/h 3.7 km/h 52 % 0 mm
15:05 -12.4 °C -17.6 °C 35038.3 hPa North 6 km/h 6 km/h 52 % 0 mm
15:10 -12.3 °C -17.6 °C 35038.3 hPa NE 6 km/h 6 km/h 52 % 0 mm
15:15 -12.3 °C -17.6 °C 35001.1 hPa NE 6 km/h 6 km/h 52 % 0 mm
15:20 -12.4 °C -17.6 °C 35001.1 hPa NNW 6 km/h 6 km/h 52 % 0 mm
15:25 -12.3 °C -17.6 °C 35001.1 hPa NNE 7.6 km/h 7.6 km/h 52 % 0 mm
15:30 -12.3 °C -17.6 °C 34967.2 hPa NE 6 km/h 6 km/h 52 % 0 mm
15:35 -12.3 °C -17.5 °C 34967.2 hPa NE 3.1 km/h 3.1 km/h 52 % 0 mm
15:40 -12.3 °C -17.5 °C 34967.2 hPa NE 6.8 km/h 6.8 km/h 52 % 0 mm
15:45 -12.3 °C -17.5 °C 35001.1 hPa NW 6 km/h 6 km/h 52 % 0 mm
15:50 -12.2 °C -17.4 °C 35001.1 hPa NNW 3.1 km/h   52 % 0 mm
15:56 -12.3 °C -17.5 °C 35001.1 hPa NNW 4.2 km/h 4.2 km/h 52 % 0 mm
16:01 -12.2 °C -17.4 °C 35001.1 hPa Calm     52 % 0 mm
16:06 -12.2 °C -17.4 °C 35001.1 hPa ENE 3.1 km/h   52 % 0 mm
16:11 -12.3 °C -17.5 °C 35001.1 hPa North 3.1 km/h 3.1 km/h 52 % 0 mm
16:16 -12.3 °C -17.5 °C 35001.1 hPa NNE 3.7 km/h 3.7 km/h 52 % 0 mm
16:21 -12.3 °C -17.5 °C 35001.1 hPa Calm     52 % 0 mm
16:26 -12.3 °C -17.5 °C 35001.1 hPa NNW 4.2 km/h 4.2 km/h 52 % 0 mm
16:31 -12.3 °C -17.5 °C 35001.1 hPa NNE 3.1 km/h   52 % 0 mm
16:36 -12.3 °C -17.6 °C 35001.1 hPa NNE 3.1 km/h 3.1 km/h 52 % 0 mm
16:41 -12.4 °C -17.6 °C 35001.1 hPa NNW 3.1 km/h   52 % 0 mm
16:46 -12.4 °C -17.6 °C 35001.1 hPa Calm     52 % 0 mm
16:51 -12.4 °C -17.6 °C 35001.1 hPa North 4.2 km/h 4.2 km/h 52 % 0 mm
16:56 -12.4 °C -17.7 °C 35001.1 hPa NNE 3.1 km/h 3.1 km/h 52 % 0 mm
17:01 -12.6 °C -17.8 °C 35001.1 hPa Calm     52 % 0 mm
17:06 -12.6 °C -17.8 °C 35001.1 hPa NW 3.1 km/h   52 % 0 mm
17:11 -12.7 °C -17.9 °C 35001.1 hPa NW 3.1 km/h   52 % 0 mm
17:16 -12.7 °C -17.9 °C 35001.1 hPa Calm     52 % 0 mm
17:21 -12.8 °C -18 °C 35001.1 hPa Calm     52 % 0 mm
17:26 -12.9 °C -18.1 °C 35001.1 hPa WNW 3.1 km/h   52 % 0 mm
17:31 -13 °C -18.2 °C 35001.1 hPa Calm     52 % 0 mm
17:36 -13.1 °C -18.2 °C 35001.1 hPa Calm     52 % 0 mm
17:41 -13.1 °C -18.3 °C 35001.1 hPa Calm     52 % 0 mm
17:46 -13.2 °C -18.3 °C 35001.1 hPa NW 3.1 km/h   52 % 0 mm
17:51 -13.2 °C -18.4 °C 35001.1 hPa NW 3.7 km/h   52 % 0 mm
17:56 -13.3 °C -18.4 °C 35001.1 hPa SW 3.1 km/h 3.1 km/h 52 % 0 mm
18:01 -13.3 °C -18.5 °C 35001.1 hPa Calm     52 % 0 mm
18:06 -13.4 °C -18.6 °C 35001.1 hPa Calm     52 % 0 mm
18:11 -13.4 °C -18.6 °C 35001.1 hPa Calm     52 % 0 mm
18:16 -13.4 °C -18.6 °C 35001.1 hPa Calm     52 % 0 mm
18:21 -13.4 °C -18.6 °C 35001.1 hPa Calm     52 % 0 mm
18:25 -16.4 °C -20.3 °C 35038.3 hPa Calm     60 % 0 mm
18:26 -13.4 °C -18.6 °C 35001.1 hPa WSW 4.2 km/h 4.2 km/h 52 % 0 mm
18:31 -13.4 °C -18.6 °C 34967.2 hPa Calm     52 % 0 mm
18:35 -16.4 °C -20.3 °C 35038.3 hPa Calm     60 % 0 mm
18:36 -13.5 °C -18.7 °C 34967.2 hPa WSW 3.7 km/h   52 % 0 mm
18:41 -13.6 °C -18.7 °C 34967.2 hPa Calm     52 % 0 mm
18:45 -16.4 °C -20.2 °C 35038.3 hPa Calm     61 % 0 mm
18:46 -13.7 °C -18.8 °C 35001.1 hPa WSW 3.1 km/h   52 % 0 mm
18:51 -13.7 °C -18.8 °C 35001.1 hPa South 6.3 km/h 6.3 km/h 52 % 0 mm
18:55 -16.6 °C -20.3 °C 35038.3 hPa Calm     61 % 0 mm
18:56 -13.8 °C -18.9 °C 35001.1 hPa Calm     52 % 0 mm
19:01 -13.8 °C -18.9 °C 35001.1 hPa SW 3.1 km/h   52 % 0 mm
19:05 -16.6 °C -20.4 °C 35038.3 hPa Calm     61 % 0 mm
19:06 -13.8 °C -18.9 °C 35001.1 hPa SW 6 km/h 6 km/h 52 % 0 mm
19:11 -13.8 °C -18.9 °C 35001.1 hPa West 6 km/h 6 km/h 52 % 0 mm
19:15 -16.7 °C -20.4 °C 35038.3 hPa Calm     61 % 0 mm
19:16 -13.8 °C -18.9 °C 35001.1 hPa West 6 km/h 6 km/h 52 % 0 mm
19:21 -13.8 °C -18.9 °C 35001.1 hPa WSW 6 km/h 6 km/h 52 % 0 mm
19:25 -16.6 °C -20.2 °C 35038.3 hPa Calm     62 % 0 mm
19:26 -13.8 °C -19.1 °C 35001.1 hPa West 6 km/h 6 km/h 51 % 0 mm
19:31 -13.9 °C -19.1 °C 35038.3 hPa WSW 6 km/h 6 km/h 51 % 0 mm
19:35 -16.7 °C -20.3 °C 35038.3 hPa Calm     62 % 0 mm
19:36 -13.9 °C -19.2 °C 35038.3 hPa SW 6 km/h 6 km/h 51 % 0 mm
19:41 -14.1 °C -19.3 °C 35038.3 hPa SW 6 km/h 6 km/h 51 % 0 mm
19:45 -16.8 °C -20.4 °C 35038.3 hPa Calm     62 % 0 mm
19:46 -14.2 °C -19.3 °C 35001.1 hPa Calm     52 % 0 mm
19:51 -14.2 °C -19.3 °C 35001.1 hPa Calm     52 % 0 mm
19:55 -16.8 °C -20.4 °C 35001.1 hPa Calm     62 % 0 mm
19:56 -14.3 °C -19.3 °C 35001.1 hPa Calm     52 % 0 mm
20:01 -14.3 °C -19.4 °C 35001.1 hPa Calm     52 % 0 mm
20:05 -16.9 °C -20.5 °C 35038.3 hPa Calm     62 % 0 mm
20:06 -14.3 °C -19.4 °C 35001.1 hPa WNW 3.7 km/h 3.7 km/h 52 % 0 mm
20:11 -14.4 °C -19.5 °C 35001.1 hPa WNW 3.7 km/h 3.7 km/h 52 % 0 mm
20:15 -16.9 °C -20.6 °C 35038.3 hPa SSW 2.6 km/h 2.6 km/h 62 % 0 mm
20:16 -14.3 °C -19.4 °C 35038.3 hPa Calm     52 % 0 mm
20:21 -14.4 °C -19.5 °C 35038.3 hPa NNW 3.1 km/h 3.1 km/h 52 % 0 mm
20:25 -17 °C -20.6 °C 35001.1 hPa SSW 2.6 km/h 5.1 km/h 62 % 0 mm
20:26 -14.4 °C -19.5 °C 35038.3 hPa NNE 3.1 km/h 3.7 km/h 52 % 0 mm
20:31 -14.4 °C -19.5 °C 35038.3 hPa Calm     52 % 0 mm
20:35 -17.1 °C -20.7 °C 35001.1 hPa SW 2.6 km/h 5.1 km/h 62 % 0 mm
20:36 -14.5 °C -19.6 °C 35038.3 hPa NNE 3.1 km/h   52 % 0 mm
20:41 -14.5 °C -19.6 °C 35038.3 hPa Calm     52 % 0 mm
20:45 -17.1 °C -20.7 °C 35001.1 hPa Calm   5.1 km/h 62 % 0 mm
20:46 -14.4 °C -19.5 °C 35038.3 hPa Calm     52 % 0 mm
20:51 -14.4 °C -19.5 °C 35038.3 hPa NNE 3.1 km/h   52 % 0 mm
20:55 -17.1 °C -20.6 °C 35001.1 hPa WSW 5.1 km/h 5.1 km/h 63 % 0 mm
20:56 -14.4 °C -19.5 °C 35038.3 hPa Calm     52 % 0 mm
21:01 -14.4 °C -19.3 °C 35038.3 hPa Calm     53 % 0 mm
21:05 -17.1 °C -20.6 °C 35001.1 hPa Calm   7.7 km/h 63 % 0 mm
21:06 -14.4 °C -19.3 °C 35038.3 hPa NNW 4.2 km/h   53 % 0 mm
21:11 -14.4 °C -19.4 °C 35038.3 hPa NNW 3.1 km/h   53 % 0 mm
21:15 -17 °C -20.5 °C 35001.1 hPa Calm   5.1 km/h 63 % 0 mm
21:16 -14.5 °C -19.4 °C 35038.3 hPa Calm     53 % 0 mm
21:21 -14.6 °C -19.6 °C 35038.3 hPa WNW 6 km/h 6 km/h 53 % 0 mm
21:25 -17.1 °C -20.6 °C 35001.1 hPa Calm   2.6 km/h 63 % 0 mm
21:26 -14.8 °C -19.7 °C 35038.3 hPa West 6 km/h 6 km/h 53 % 0 mm
21:31 -14.9 °C -19.8 °C 35038.3 hPa WSW 6 km/h 6 km/h 53 % 0 mm
21:35 -17.2 °C -20.7 °C 35001.1 hPa Calm   5.1 km/h 63 % 0 mm
21:36 -14.9 °C -19.8 °C 35038.3 hPa SW 6 km/h 6 km/h 53 % 0 mm
21:41 -15.1 °C -19.9 °C 35038.3 hPa WSW 6 km/h 6 km/h 53 % 0 mm
21:45 -17.3 °C -20.8 °C 35001.1 hPa Calm   2.6 km/h 63 % 0 mm
21:46 -15.1 °C -19.9 °C 35038.3 hPa SW 6 km/h 6.3 km/h 53 % 0 mm
21:51 -15.3 °C -20.2 °C 35038.3 hPa SW 6.3 km/h 6.3 km/h 53 % 0 mm
21:55 -17.4 °C -20.7 °C 35001.1 hPa Calm   2.6 km/h 64 % 0 mm
21:56 -15.3 °C -20.2 °C 35038.3 hPa WSW 6.3 km/h 6.3 km/h 53 % 0 mm
22:01 -15.3 °C -20.2 °C 35038.3 hPa WSW 6 km/h 6 km/h 53 % 0 mm
22:05 -17.4 °C -20.7 °C 35001.1 hPa Calm     64 % 0 mm
22:06 -15.3 °C -20.1 °C 35038.3 hPa Calm     54 % 0 mm
22:11 -15.4 °C -20.1 °C 35038.3 hPa Calm     54 % 0 mm
22:15 -17.4 °C -20.7 °C 35001.1 hPa Calm   2.6 km/h 64 % 0 mm
22:16 -15.3 °C -20.1 °C 35038.3 hPa WSW 3.1 km/h 3.7 km/h 54 % 0 mm
22:21 -15.3 °C -20.1 °C 35038.3 hPa Calm     54 % 0 mm
22:25 -17.3 °C -20.6 °C 35001.1 hPa Calm   5.1 km/h 65 % 0 mm
22:26 -15.4 °C -19.9 °C 35038.3 hPa North 3.1 km/h   55 % 0 mm
22:31 -15.5 °C -20.1 °C 35038.3 hPa NE 6 km/h 6 km/h 55 % 0 mm
22:35 -17.4 °C -20.7 °C 35001.1 hPa Calm     64 % 0 mm
22:36 -15.6 °C -20.1 °C 35038.3 hPa NNE 4.2 km/h   55 % 0 mm
22:41 -15.5 °C -19.9 °C 35038.3 hPa NNE 3.1 km/h   56 % 0 mm
22:45 -17.4 °C -20.7 °C 35001.1 hPa Calm     65 % 0 mm
22:46 -15.6 °C -20.2 °C 35038.3 hPa Calm     55 % 0 mm
22:51 -15.7 °C -20.1 °C 35038.3 hPa Calm     56 % 0 mm
22:55 -17.8 °C -21.1 °C 35001.1 hPa Calm   5.1 km/h 64 % 0 mm
22:56 -15.7 °C -20.1 °C 35038.3 hPa Calm     56 % 0 mm
23:01 -15.7 °C -20.2 °C 35038.3 hPa Calm     56 % 0 mm
23:05 -17.7 °C -20.9 °C 35001.1 hPa West 2.6 km/h 5.1 km/h 65 % 0 mm
23:06 -15.8 °C -20.2 °C 35038.3 hPa Calm     56 % 0 mm
23:11 -15.8 °C -20.2 °C 35038.3 hPa SSW 3.1 km/h 3.1 km/h 56 % 0 mm
23:15 -17.7 °C -20.9 °C 35001.1 hPa Calm   5.1 km/h 65 % 0 mm
23:16 -15.8 °C -20.2 °C 35038.3 hPa Calm     56 % 0 mm
23:21 -15.9 °C -20.2 °C 35038.3 hPa Calm     57 % 0 mm
23:25 -17.7 °C -20.9 °C 35001.1 hPa Calm   5.1 km/h 65 % 0 mm
23:26 -15.9 °C -20.2 °C 35038.3 hPa Calm     57 % 0 mm
23:31 -16 °C -20.3 °C 35038.3 hPa Calm     57 % 0 mm
23:35 -17.7 °C -20.8 °C 35001.1 hPa Calm   2.6 km/h 66 % 0 mm
23:36 -16 °C -20.2 °C 35038.3 hPa Calm     58 % 0 mm
23:41 -16.1 °C -20.2 °C 35038.3 hPa Calm     58 % 0 mm
23:45 -17.8 °C -21 °C 35001.1 hPa WSW 2.6 km/h 5.1 km/h 65 % 0 mm
23:46 -16.1 °C -20.2 °C 35038.3 hPa SSW 3.1 km/h 3.1 km/h 58 % 0 mm
23:51 -16.2 °C -20.3 °C 35038.3 hPa Calm     58 % 0 mm
23:55 -17.7 °C -20.9 °C 35001.1 hPa WSW 2.6 km/h 5.1 km/h 65 % 0 mm
23:56 -16.2 °C -20.4 °C 35038.3 hPa Calm     58 % 0 mm
Meteo Sesrovires
Elogis d' Weather Underground - 1.75 mb

Guio original per  Jim McMurry - jmcmurry@mwt.net Adaptat per a la plantilla per  Wim van der Kuil - Leuven-Template.eu

Trobareu la nostra informacio del temps tambe a:

Weather Underground

AWEKAS